createdAt,value
2022-11-14T00:03:03.331Z,100.00
2022-11-14T00:06:24.565Z,100.00
2022-11-14T00:09:47.391Z,100.00
2022-11-14T00:13:08.465Z,100.00
2022-11-14T00:16:29.462Z,100.00
2022-11-14T00:19:50.525Z,100.00
2022-11-14T00:23:11.549Z,100.00
2022-11-14T00:26:34.090Z,100.00
2022-11-14T00:29:55.565Z,100.00
2022-11-14T00:33:20.330Z,100.00
2022-11-14T00:36:42.026Z,100.00
2022-11-14T00:40:03.121Z,100.00
2022-11-14T00:43:25.607Z,100.00
2022-11-14T00:46:46.601Z,100.00
2022-11-14T00:50:08.438Z,100.00
2022-11-14T00:53:29.665Z,100.00
2022-11-14T00:56:50.746Z,100.00
2022-11-14T01:00:14.432Z,100.00
2022-11-14T01:03:35.597Z,100.00
2022-11-14T01:06:56.820Z,100.00
2022-11-14T01:10:18.167Z,100.00
2022-11-14T01:13:39.995Z,100.00
2022-11-14T01:17:02.658Z,100.00
2022-11-14T01:20:23.663Z,100.00
2022-11-14T01:23:45.420Z,100.00
2022-11-14T01:27:06.514Z,100.00
2022-11-14T01:30:27.784Z,100.00
2022-11-14T01:33:51.248Z,100.00
2022-11-14T01:37:12.349Z,100.00
2022-11-14T01:40:33.519Z,100.00
2022-11-14T01:43:54.662Z,100.00
2022-11-14T01:47:18.950Z,100.00
2022-11-14T01:50:41.471Z,100.00
2022-11-14T01:54:04.497Z,100.00
2022-11-14T01:57:29.659Z,100.00
2022-11-14T02:00:51.108Z,100.00
2022-11-14T02:04:15.356Z,100.00
2022-11-14T02:07:40.978Z,100.00
2022-11-14T02:11:02.042Z,100.00
2022-11-14T02:14:23.002Z,100.00
2022-11-14T02:17:44.930Z,100.00
2022-11-14T02:21:07.632Z,100.00
2022-11-14T02:24:29.079Z,100.00
2022-11-14T02:27:50.612Z,100.00
2022-11-14T02:31:11.757Z,100.00
2022-11-14T02:34:33.151Z,100.00
2022-11-14T02:37:55.945Z,100.00
2022-11-14T02:41:17.097Z,100.00
2022-11-14T02:44:38.497Z,100.00
2022-11-14T02:47:59.704Z,100.00
2022-11-14T02:51:20.767Z,100.00
2022-11-14T02:54:43.737Z,100.00
2022-11-14T02:58:04.722Z,100.00
2022-11-14T03:01:26.154Z,100.00
2022-11-14T03:04:47.583Z,100.00
2022-11-14T03:08:08.672Z,100.00
2022-11-14T03:11:31.179Z,100.00
2022-11-14T03:14:52.347Z,100.00
2022-11-14T03:18:13.586Z,100.00
2022-11-14T03:21:34.715Z,100.00
2022-11-14T03:24:55.711Z,100.00
2022-11-14T03:28:18.075Z,100.00
2022-11-14T03:31:39.160Z,100.00
2022-11-14T03:35:00.177Z,100.00
2022-11-14T03:38:23.054Z,100.00
2022-11-14T03:41:44.892Z,100.00
2022-11-14T03:45:08.171Z,100.00
2022-11-14T03:48:31.003Z,100.00
2022-11-14T03:51:52.571Z,100.00
2022-11-14T03:55:13.614Z,100.00
2022-11-14T03:58:34.541Z,100.00
2022-11-14T04:01:57.030Z,100.00
2022-11-14T04:05:18.145Z,100.00
2022-11-14T04:08:41.644Z,100.00
2022-11-14T04:12:02.666Z,100.00
2022-11-14T04:15:23.852Z,100.00
2022-11-14T04:18:46.741Z,100.00
2022-11-14T04:22:08.081Z,100.00
2022-11-14T04:25:29.052Z,100.00
2022-11-14T04:28:50.357Z,100.00
2022-11-14T04:32:11.548Z,100.00
2022-11-14T04:35:33.915Z,100.00
2022-11-14T04:38:55.022Z,100.00
2022-11-14T04:42:16.132Z,100.00
2022-11-14T04:45:37.506Z,100.00
2022-11-14T04:48:58.766Z,100.00
2022-11-14T04:52:21.595Z,100.00
2022-11-14T04:55:42.631Z,100.00
2022-11-14T04:59:03.752Z,100.00
2022-11-14T05:02:25.177Z,100.00
2022-11-14T05:05:46.593Z,100.00
2022-11-14T05:09:09.105Z,100.00
2022-11-14T05:12:30.519Z,100.00
2022-11-14T05:15:51.460Z,100.00
2022-11-14T05:19:12.541Z,100.00
2022-11-14T05:22:33.573Z,100.00
2022-11-14T05:26:03.051Z,100.00
2022-11-14T05:29:24.267Z,100.00
2022-11-14T05:32:45.774Z,100.00
2022-11-14T05:36:07.624Z,100.00
2022-11-14T05:39:28.807Z,100.00
2022-11-14T05:42:51.432Z,100.00
2022-11-14T05:46:13.641Z,100.00
2022-11-14T05:49:34.639Z,100.00
2022-11-14T05:52:57.125Z,100.00
2022-11-14T05:56:18.155Z,100.00
2022-11-14T05:59:40.581Z,100.00
2022-11-14T06:03:01.530Z,100.00
2022-11-14T06:06:22.601Z,100.00
2022-11-14T06:09:43.804Z,100.00
2022-11-14T06:13:04.994Z,100.00
2022-11-14T06:16:27.740Z,100.00
2022-11-14T06:19:49.325Z,100.00
2022-11-14T06:23:10.577Z,100.00
2022-11-14T06:26:34.060Z,100.00
2022-11-14T06:29:55.177Z,100.00
2022-11-14T06:33:17.676Z,100.00
2022-11-14T06:36:39.084Z,100.00
2022-11-14T06:40:00.193Z,100.00
2022-11-14T06:43:21.429Z,100.00
2022-11-14T06:46:42.602Z,100.00
2022-11-14T06:50:05.936Z,100.00
2022-11-14T06:53:28.502Z,100.00
2022-11-14T06:56:50.166Z,100.00
2022-11-14T07:00:11.850Z,100.00
2022-11-14T07:03:33.388Z,100.00
2022-11-14T07:06:56.220Z,100.00
2022-11-14T07:10:17.766Z,100.00
2022-11-14T07:13:39.629Z,100.00
2022-11-14T07:17:00.944Z,100.00
2022-11-14T07:20:22.160Z,100.00
2022-11-14T07:23:45.067Z,100.00
2022-11-14T07:27:08.738Z,100.00
2022-11-14T07:30:29.832Z,100.00
2022-11-14T07:33:51.136Z,100.00
2022-11-14T07:37:12.072Z,100.00
2022-11-14T07:40:34.572Z,100.00
2022-11-14T07:43:55.674Z,100.00
2022-11-14T07:47:16.831Z,100.00
2022-11-14T07:50:37.935Z,100.00
2022-11-14T07:53:58.982Z,100.00
2022-11-14T07:57:21.460Z,100.00
2022-11-14T08:00:42.903Z,100.00
2022-11-14T08:04:04.021Z,100.00
2022-11-14T08:07:25.301Z,100.00
2022-11-14T08:10:46.403Z,100.00
2022-11-14T08:14:09.223Z,100.00
2022-11-14T08:17:30.458Z,100.00
2022-11-14T08:20:51.863Z,100.00
2022-11-14T08:24:13.039Z,100.00
2022-11-14T08:27:34.140Z,100.00
2022-11-14T08:31:01.280Z,100.00
2022-11-14T08:34:22.528Z,100.00
2022-11-14T08:37:43.774Z,100.00
2022-11-14T08:41:05.188Z,100.00
2022-11-14T08:44:26.340Z,100.00
2022-11-14T08:47:53.614Z,100.00
2022-11-14T08:51:14.968Z,100.00
2022-11-14T08:54:36.192Z,100.00
2022-11-14T08:57:57.434Z,100.00
2022-11-14T09:01:18.584Z,100.00
2022-11-14T09:04:41.689Z,100.00
2022-11-14T09:08:03.037Z,100.00
2022-11-14T09:11:24.154Z,100.00
2022-11-14T09:14:45.338Z,100.00
2022-11-14T09:18:06.678Z,100.00
2022-11-14T09:21:29.196Z,100.00
2022-11-14T09:24:52.044Z,100.00
2022-11-14T09:28:13.421Z,100.00
2022-11-14T09:31:34.468Z,100.00
2022-11-14T09:34:55.500Z,100.00
2022-11-14T09:38:17.958Z,100.00
2022-11-14T09:41:46.839Z,100.00
2022-11-14T09:45:11.726Z,100.00
2022-11-14T09:48:33.379Z,100.00
2022-11-14T09:51:58.249Z,100.00
2022-11-14T09:55:22.333Z,100.00
2022-11-14T09:58:43.827Z,100.00
2022-11-14T10:02:11.973Z,100.00
2022-11-14T10:05:43.194Z,100.00
2022-11-14T10:09:13.140Z,100.00
2022-11-14T10:12:41.775Z,100.00
2022-11-14T10:16:06.024Z,100.00
2022-11-14T10:19:31.662Z,100.00
2022-11-14T10:23:05.044Z,100.00
2022-11-14T10:26:30.313Z,100.00
2022-11-14T10:29:59.149Z,98.18
2022-11-14T10:33:24.735Z,96.78
2022-11-14T10:36:51.934Z,96.94
2022-11-14T10:40:18.797Z,95.78
2022-11-14T10:43:42.072Z,97.56
2022-11-14T10:47:05.646Z,98.15
2022-11-14T10:50:29.794Z,97.75
2022-11-14T10:53:53.473Z,97.91
2022-11-14T10:57:17.070Z,97.99
2022-11-14T11:00:38.277Z,96.64
2022-11-14T11:04:12.191Z,94.72
2022-11-14T11:08:14.988Z,97.54
2022-11-14T11:11:53.131Z,92.04
2022-11-14T11:15:16.235Z,91.50
2022-11-14T11:18:38.008Z,91.30
2022-11-14T11:22:00.645Z,86.61
2022-11-14T11:25:26.337Z,88.55
2022-11-14T11:29:02.612Z,85.84
2022-11-14T11:32:25.604Z,87.81
2022-11-14T11:35:48.879Z,86.75
2022-11-14T11:39:19.862Z,88.00
2022-11-14T11:43:31.600Z,87.91
2022-11-14T11:46:29.634Z,90.13
2022-11-14T11:49:54.311Z,83.46
2022-11-14T11:53:20.064Z,79.81
2022-11-14T11:56:43.024Z,80.14
2022-11-14T12:00:06.828Z,80.08
2022-11-14T12:03:28.252Z,73.98
2022-11-14T12:06:53.922Z,73.67
2022-11-14T12:10:17.578Z,73.58
2022-11-14T12:13:51.662Z,72.17
2022-11-14T12:17:29.263Z,69.53
2022-11-14T12:20:58.043Z,69.57
2022-11-14T12:24:26.813Z,68.74
2022-11-14T12:28:01.476Z,69.42
2022-11-14T12:31:24.026Z,65.33
2022-11-14T12:34:46.870Z,69.48
2022-11-14T12:38:17.705Z,64.65
2022-11-14T12:41:40.436Z,69.38
2022-11-14T12:45:01.922Z,67.81
2022-11-14T12:48:30.063Z,66.83
2022-11-14T12:51:52.417Z,65.18
2022-11-14T12:55:32.059Z,69.04
2022-11-14T12:59:13.739Z,68.46
2022-11-14T13:02:52.693Z,65.34
2022-11-14T13:06:20.809Z,66.19
2022-11-14T13:09:55.647Z,67.45
2022-11-14T13:13:35.259Z,66.00
2022-11-14T13:17:27.617Z,66.13
2022-11-14T13:21:19.837Z,68.27
2022-11-14T13:24:59.749Z,69.39
2022-11-14T13:31:19.604Z,68.76
2022-11-14T13:34:44.738Z,72.15
2022-11-14T13:38:20.915Z,70.15
2022-11-14T13:42:02.804Z,69.51
2022-11-14T13:45:51.399Z,74.04
2022-11-14T13:49:21.734Z,76.97
2022-11-14T13:52:44.666Z,80.13
2022-11-14T13:56:09.782Z,77.81
2022-11-14T13:59:41.233Z,74.55
2022-11-14T14:03:20.891Z,75.66
2022-11-14T14:06:49.936Z,76.26
2022-11-14T14:10:20.070Z,72.36
2022-11-14T14:13:51.123Z,73.20
2022-11-14T14:17:21.827Z,70.06
2022-11-14T14:20:46.757Z,70.09
2022-11-14T14:24:14.749Z,70.09
2022-11-14T14:27:38.766Z,68.25
2022-11-14T14:31:04.566Z,68.55
2022-11-14T14:34:28.396Z,70.22
2022-11-14T14:37:53.851Z,70.07
2022-11-14T14:41:19.002Z,70.90
2022-11-14T14:44:41.014Z,72.36
2022-11-14T14:48:03.639Z,71.55
2022-11-14T14:51:31.046Z,73.64
2022-11-14T14:54:55.228Z,74.22
2022-11-14T14:58:25.032Z,74.38
2022-11-14T15:01:46.799Z,75.02
2022-11-14T15:05:08.748Z,75.89
2022-11-14T15:08:31.299Z,77.42
2022-11-14T15:11:54.870Z,77.93
2022-11-14T15:15:20.197Z,79.44
2022-11-14T15:18:41.424Z,80.20
2022-11-14T15:22:04.229Z,81.10
2022-11-14T15:25:25.482Z,81.96
2022-11-14T15:28:46.783Z,82.56
2022-11-14T15:32:19.066Z,83.70
2022-11-14T15:35:40.754Z,84.74
2022-11-14T15:39:03.600Z,84.60
2022-11-14T15:42:28.297Z,84.31
2022-11-14T15:45:49.479Z,85.35
2022-11-14T15:49:20.099Z,87.46
2022-11-14T15:52:47.356Z,91.13
2022-11-14T15:58:50.912Z,90.48
2022-11-14T16:02:13.929Z,90.40
2022-11-14T16:05:35.287Z,91.39
2022-11-14T16:08:56.400Z,92.26
2022-11-14T16:12:17.571Z,94.69
2022-11-14T16:15:40.304Z,95.19
2022-11-14T16:21:12.508Z,96.39
2022-11-14T16:27:07.398Z,100.00
2022-11-14T16:30:28.662Z,100.00
2022-11-14T16:33:50.226Z,100.00
2022-11-14T16:37:12.919Z,100.00
2022-11-14T16:40:34.470Z,100.00
2022-11-14T16:43:57.821Z,100.00
2022-11-14T16:47:19.704Z,100.00
2022-11-14T16:50:41.102Z,100.00
2022-11-14T16:54:02.302Z,100.00
2022-11-14T16:57:23.793Z,100.00
2022-11-14T17:00:46.069Z,100.00
2022-11-14T17:04:07.160Z,100.00
2022-11-14T17:07:30.564Z,100.00
2022-11-14T17:10:51.857Z,100.00
2022-11-14T17:14:12.929Z,100.00
2022-11-14T17:17:35.390Z,100.00
2022-11-14T17:20:56.740Z,100.00
2022-11-14T17:24:17.957Z,100.00
2022-11-14T17:27:39.208Z,100.00
2022-11-14T17:31:00.298Z,100.00
2022-11-14T17:34:22.616Z,100.00
2022-11-14T17:37:44.496Z,100.00
2022-11-14T17:41:06.716Z,100.00
2022-11-14T17:44:28.001Z,100.00
2022-11-14T17:47:49.090Z,100.00
2022-11-14T17:51:13.029Z,100.00
2022-11-14T17:54:37.582Z,100.00
2022-11-14T17:57:59.008Z,100.00
2022-11-14T18:01:21.049Z,100.00
2022-11-14T18:04:42.537Z,100.00
2022-11-14T18:08:05.638Z,100.00
2022-11-14T18:11:27.293Z,100.00
2022-11-14T18:14:48.678Z,100.00
2022-11-14T18:18:10.035Z,100.00
2022-11-14T18:21:31.491Z,100.00
2022-11-14T18:24:54.095Z,100.00
2022-11-14T18:28:15.655Z,100.00
2022-11-14T18:31:36.812Z,100.00
2022-11-14T18:34:58.004Z,100.00
2022-11-14T18:38:19.157Z,100.00
2022-11-14T18:41:41.690Z,100.00
2022-11-14T18:45:03.187Z,100.00
2022-11-14T18:48:24.473Z,100.00
2022-11-14T18:51:45.870Z,100.00
2022-11-14T18:55:08.016Z,100.00
2022-11-14T18:58:30.656Z,100.00
2022-11-14T19:01:51.976Z,100.00
2022-11-14T19:05:13.029Z,100.00
2022-11-14T19:08:34.214Z,100.00
2022-11-14T19:12:13.532Z,100.00
2022-11-14T19:15:35.957Z,100.00
2022-11-14T19:18:57.440Z,100.00
2022-11-14T19:22:18.740Z,100.00
2022-11-14T19:25:39.899Z,100.00
2022-11-14T19:29:03.797Z,100.00
2022-11-14T19:32:26.535Z,100.00
2022-11-14T19:35:48.012Z,100.00
2022-11-14T19:39:09.634Z,100.00
2022-11-14T19:42:31.129Z,100.00
2022-11-14T19:45:52.191Z,100.00
2022-11-14T19:49:14.940Z,100.00
2022-11-14T19:52:36.153Z,100.00
2022-11-14T19:56:00.669Z,100.00
2022-11-14T19:59:24.659Z,100.00
2022-11-14T20:02:46.686Z,100.00
2022-11-14T20:06:16.208Z,100.00
2022-11-14T20:09:37.489Z,100.00
2022-11-14T20:12:58.600Z,100.00
2022-11-14T20:16:21.335Z,100.00
2022-11-14T20:19:42.996Z,100.00
2022-11-14T20:23:06.263Z,100.00
2022-11-14T20:26:27.725Z,100.00
2022-11-14T20:29:49.157Z,100.00
2022-11-14T20:33:10.442Z,100.00
2022-11-14T20:36:44.106Z,100.00
2022-11-14T20:40:14.770Z,100.00
2022-11-14T20:43:35.916Z,100.00
2022-11-14T20:46:57.148Z,100.00
2022-11-14T20:50:18.480Z,100.00
2022-11-14T20:53:39.899Z,100.00
2022-11-14T20:57:02.873Z,100.00
2022-11-14T21:00:24.518Z,100.00
2022-11-14T21:03:46.195Z,100.00
2022-11-14T21:07:07.567Z,100.00
2022-11-14T21:10:46.948Z,100.00
2022-11-14T21:14:11.761Z,100.00
2022-11-14T21:17:33.277Z,100.00
2022-11-14T21:21:01.679Z,100.00
2022-11-14T21:24:23.221Z,100.00
2022-11-14T21:27:44.332Z,100.00
2022-11-14T21:31:14.992Z,100.00
2022-11-14T21:34:36.230Z,100.00
2022-11-14T21:37:57.496Z,100.00
2022-11-14T21:41:19.456Z,100.00
2022-11-14T21:44:40.861Z,100.00
2022-11-14T21:48:03.094Z,100.00
2022-11-14T21:51:25.427Z,100.00
2022-11-14T21:54:46.600Z,100.00
2022-11-14T21:58:07.754Z,100.00
2022-11-14T22:01:42.921Z,100.00
2022-11-14T22:05:06.396Z,100.00
2022-11-14T22:08:27.818Z,100.00
2022-11-14T22:11:49.214Z,100.00
2022-11-14T22:15:10.957Z,100.00
2022-11-14T22:18:32.529Z,100.00
2022-11-14T22:21:55.282Z,100.00
2022-11-14T22:25:16.362Z,100.00
2022-11-14T22:28:37.580Z,100.00
2022-11-14T22:31:58.967Z,100.00
2022-11-14T22:35:20.063Z,100.00
2022-11-14T22:38:43.070Z,100.00
2022-11-14T22:42:04.668Z,100.00
2022-11-14T22:45:25.718Z,100.00
2022-11-14T22:48:47.597Z,100.00
2022-11-14T22:52:08.959Z,100.00
2022-11-14T22:55:31.549Z,100.00
2022-11-14T22:58:53.023Z,100.00
2022-11-14T23:02:14.108Z,100.00
2022-11-14T23:05:36.034Z,100.00
2022-11-14T23:08:57.336Z,100.00
2022-11-14T23:12:20.195Z,100.00
2022-11-14T23:15:47.113Z,100.00
2022-11-14T23:19:08.471Z,100.00
2022-11-14T23:22:29.647Z,100.00
2022-11-14T23:25:50.767Z,100.00
2022-11-14T23:29:14.887Z,100.00
2022-11-14T23:32:35.961Z,100.00
2022-11-14T23:35:57.076Z,100.00
2022-11-14T23:39:18.567Z,100.00
2022-11-14T23:42:39.769Z,100.00
2022-11-14T23:46:02.349Z,100.00
2022-11-14T23:49:23.799Z,100.00
2022-11-14T23:52:44.917Z,100.00
2022-11-14T23:56:06.458Z,100.00
2022-11-14T23:59:27.771Z,100.00
